Afonso Pena Airport

SBCT · Paraná, 巴西

罗盘
风向 的 风向 130° Afonso Pena Airport 15/33
风: 6 kt, 2 beaufort

6 kt

1 kt
改变
0 ft 1.000 2.000 3.000 4.000 5.000
CAVOK
METAR SBCT 182200Z 13006KT CAVOK 14/12 Q1021

METAR Afonso Pena Airport - SBCT/CWB

Afonso Pena Airport是,巴西中的中型机场。 该机场位于纬度-25,52882和经度-49,17316。 该机场有2条跑道: 15/33 和 11/29. 本场的ICAO机场代码为SBCT。 该机场的IATA代码为CWB。 机场在Curitiba FIR中。

该航空气象观测是针对Afonso Pena Airport在2024年4月18日 19:00, 当地时间进行的。

机场观察

风向为130°,速度为6 kt。

天气为CAVOK。这意味着在5.000 ft或MSA(最低安全高度)以下(以较高者为准)以下没有云。这也意味着没有观测到积雨云或高耸的积云,可见度为10 km 或者更多或更高。此外,不会有雾,降雨或其他重要天气。

温度和风寒是14 °C。 露点为12 °C,相对湿度为88%。 海平面上的气压为1021 hPa (QNH)。

白天

今天,太阳从06:33升起,在17:58降落。 这适用于Afonso Pena Airport,世界夏令时可能有所不同。 当地时间与世界标准时间之间的时差为-3 小时。 夏令时目前正在进行中。

公司介绍

在这个机场,你可以找到飞行学校。 本场上唯一已知的公司是Aeroclube de Ponta Grossa。

体会

到Vliegles.nl去找飞行课程,跳伞和其他飞行体验。 浏览页面,了解Afonso Pena Airport附近所有可用的活动。 你也可以使用搜索功能来寻找你所在地附近的特定飞行课程、跳伞或其他飞行体验。

跑道

Id 标题 侧风 逆风 侧风 %
15/33 135°-315° 6 kt 9 %
11/29 092°-272° 4 kt 5 kt 62 %

逆风成分最大的方向会被突出显示,并用于横风计算。 这并不一定意味着这个方向在使用。

温度 & 天气

温度 14 °C
露点 12 °C
相对湿度 88%
Kp-index 1 (0-9)

白天

日出
06:33 (10:38)
中午
12:15
日落
17:58

小工具

你想在你的网站上有一个关于Afonso Pena Airport的当前航空天气(METAR)的小部件吗?

显示HTML代码
报告变更